Wetterdaten: Woche 19.04.21 - 25.04.21 (KW16)
Datum Zeit Temp. Aussen Temp. o. S. Temp +5cm Feuchte Auss Luftdruck Regen Sonnenschein Regendauer Solar Windben Empfang
19.04.2021 00:00 10,4 C 9,3 C 7,0 C 79 % 1020,6 hPa 0,0 l/m 0,00 h 0,00 h 0 W/m 11,1 km/h (2 Bft) 80,20 %
19.04.2021 01:00 9,6 C 8,9 C 6,5 C 81 % 1020,5 hPa 0,0 l/m 0,00 h 0,00 h 0 W/m 8,4 km/h (2 Bft) 56,40 %
19.04.2021 02:00 9,4 C 8,6 C 6,3 C 81 % 1020,3 hPa 0,0 l/m 0,00 h 0,00 h 0 W/m 9,3 km/h (2 Bft) 87,38 %
19.04.2021 03:00 8,9 C 8,1 C 5,9 C 80 % 1020,1 hPa 0,0 l/m 0,00 h 0,00 h 0 W/m 10,9 km/h (2 Bft) 91,27 %
19.04.2021 04:00 8,3 C 7,5 C 5,3 C 83 % 1019,9 hPa 0,0 l/m 0,00 h 0,37 h 0 W/m 8,1 km/h (2 Bft) 76,92 %
19.04.2021 05:00 7,8 C 7,2 C 5,0 C 87 % 1019,9 hPa 0,0 l/m 0,00 h 0,00 h 0 W/m 4,2 km/h (1 Bft) 86,25 %
19.04.2021 06:00 7,5 C 6,9 C 4,9 C 88 % 1019,9 hPa 0,0 l/m 0,00 h 0,10 h 0 W/m 1,9 km/h (1 Bft) 77,82 %
19.04.2021 07:00 7,2 C 6,2 C 4,1 C 91 % 1020,1 hPa 1,8 l/m 0,00 h 0,80 h 9 W/m 4,0 km/h (1 Bft) 95,24 %
19.04.2021 08:00 7,0 C 6,0 C 4,2 C 94 % 1020,4 hPa 2,0 l/m 0,00 h 1,00 h 23 W/m 4,2 km/h (1 Bft) 96,92 %
19.04.2021 09:00 7,0 C 6,6 C 4,9 C 96 % 1020,3 hPa 0,4 l/m 0,00 h 0,83 h 107 W/m 5,6 km/h (1 Bft) 98,64 %
19.04.2021 10:00 7,6 C 7,4 C 5,8 C 97 % 1020,2 hPa 0,0 l/m 0,00 h 0,00 h 109 W/m 3,4 km/h (1 Bft) 98,08 %
19.04.2021 11:00 7,9 C 7,8 C 6,1 C 97 % 1020,6 hPa 0,0 l/m 0,00 h 0,00 h 68 W/m 2,3 km/h (1 Bft) 94,95 %
19.04.2021 12:00 8,4 C 9,0 C 6,9 C 97 % 1020,6 hPa 0,0 l/m 0,00 h 0,00 h 204 W/m 3,4 km/h (1 Bft) 99,08 %
19.04.2021 13:00 10,2 C 13,1 C 9,2 C 94 % 1020,4 hPa 0,0 l/m 0,67 h 0,00 h 432 W/m 5,3 km/h (1 Bft) 95,55 %
19.04.2021 14:00 12,2 C 16,2 C 10,9 C 86 % 1020,1 hPa 0,0 l/m 0,80 h 0,00 h 598 W/m 7,9 km/h (2 Bft) 96,23 %
19.04.2021 15:00 13,5 C 17,5 C 12,1 C 80 % 1019,8 hPa 0,0 l/m 0,93 h 0,00 h 609 W/m 8,5 km/h (2 Bft) 95,82 %
19.04.2021 16:00 13,4 C 13,7 C 11,0 C 78 % 1019,5 hPa 0,0 l/m 0,00 h 0,00 h 144 W/m 4,9 km/h (1 Bft) 97,65 %
19.04.2021 17:00 12,8 C 12,5 C 10,3 C 81 % 1019,2 hPa 0,0 l/m 0,00 h 0,00 h 96 W/m 9,5 km/h (2 Bft) 98,62 %
19.04.2021 18:00 12,5 C 12,4 C 10,0 C 83 % 1019,2 hPa 0,0 l/m 0,00 h 0,00 h 103 W/m 7,5 km/h (2 Bft) 95,95 %
19.04.2021 19:00 12,4 C 12,2 C 9,8 C 84 % 1019,1 hPa 0,0 l/m 0,00 h 0,00 h 65 W/m 4,7 km/h (1 Bft) 97,89 %
19.04.2021 20:00 11,7 C 10,6 C 8,5 C 86 % 1019,1 hPa 0,0 l/m 0,03 h 0,00 h 17 W/m 0,9 km/h (0 Bft) 98,79 %
19.04.2021 21:00 10,6 C 8,5 C 6,6 C 86 % 1019,3 hPa 0,0 l/m 0,00 h 0,00 h 0 W/m 0,0 km/h (0 Bft) 96,90 %
19.04.2021 22:00 9,3 C 7,3 C 5,7 C 88 % 1019,2 hPa 0,0 l/m 0,00 h 0,00 h 0 W/m 0,0 km/h (0 Bft) 93,95 %
19.04.2021 23:00 8,1 C 6,4 C 4,8 C 90 % 1019,1 hPa 0,0 l/m 0,00 h 0,00 h 0 W/m 0,0 km/h (0 Bft) 96,21 %
20.04.2021 00:00 7,3 C 5,8 C 4,3 C 92 % 1019,1 hPa 0,0 l/m 0,00 h 0,00 h 0 W/m 0,2 km/h (0 Bft) 97,50 %
20.04.2021 01:00 6,3 C 4,9 C 3,8 C 93 % 1019,0 hPa 0,0 l/m 0,00 h 0,00 h 0 W/m 0,0 km/h (0 Bft) 95,93 %
20.04.2021 02:00 5,5 C 4,1 C 3,3 C 93 % 1018,7 hPa 0,0 l/m 0,00 h 0,00 h 0 W/m 0,0 km/h (0 Bft) 96,80 %
20.04.2021 03:00 4,9 C 3,6 C 2,9 C 94 % 1018,5 hPa 0,0 l/m 0,00 h 0,00 h 0 W/m 0,1 km/h (0 Bft) 98,74 %
20.04.2021 04:00 4,3 C 3,2 C 2,6 C 95 % 1018,5 hPa 0,0 l/m 0,00 h 0,00 h 0 W/m 0,1 km/h (0 Bft) 98,15 %
20.04.2021 05:00 3,6 C 2,7 C 2,2 C 95 % 1018,4 hPa 0,0 l/m 0,00 h 0,00 h 0 W/m 0,0 km/h (0 Bft) 96,88 %
20.04.2021 06:00 3,3 C 2,6 C 2,0 C 95 % 1018,2 hPa 0,2 l/m 0,00 h 0,00 h 10 W/m 0,4 km/h (0 Bft) 96,46 %
20.04.2021 07:00 4,2 C 4,1 C 3,3 C 97 % 1018,3 hPa 0,0 l/m 0,00 h 0,00 h 46 W/m 0,9 km/h (0 Bft) 94,81 %
20.04.2021 08:00 5,4 C 5,9 C 4,7 C 98 % 1018,5 hPa 0,0 l/m 0,27 h 0,00 h 137 W/m 3,2 km/h (1 Bft) 97,51 %
20.04.2021 09:00 8,3 C 14,8 C 11,0 C 99 % 1018,5 hPa 0,0 l/m 0,80 h 0,00 h 324 W/m 6,1 km/h (2 Bft) 94,03 %
20.04.2021 10:00 11,8 C 16,6 C 13,5 C 86 % 1018,4 hPa 0,0 l/m 0,73 h 0,00 h 423 W/m 5,8 km/h (2 Bft) 96,79 %
20.04.2021 11:00 14,0 C 17,1 C 14,0 C 75 % 1018,3 hPa 0,0 l/m 1,00 h 0,00 h 708 W/m 6,5 km/h (2 Bft) 96,37 %
20.04.2021 12:00 16,1 C 20,5 C 22,0 C 67 % 1018,2 hPa 0,0 l/m 1,00 h 0,00 h 794 W/m 8,2 km/h (2 Bft) 97,68 %
20.04.2021 13:00 17,6 C 22,3 C 20,4 C 58 % 1017,7 hPa 0,0 l/m 1,00 h 0,00 h 841 W/m 9,3 km/h (2 Bft) 97,36 %
20.04.2021 14:00 18,6 C 23,3 C 15,7 C 53 % 1017,4 hPa 0,0 l/m 1,00 h 0,00 h 818 W/m 10,7 km/h (2 Bft) 98,15 %
20.04.2021 15:00 18,3 C 21,6 C 15,2 C 54 % 1016,9 hPa 0,0 l/m 0,27 h 0,00 h 397 W/m 7,2 km/h (2 Bft) 99,29 %
20.04.2021 16:00 18,7 C 25,6 C 15,6 C 53 % 1016,4 hPa 0,0 l/m 0,90 h 0,00 h 572 W/m 6,2 km/h (2 Bft) 94,87 %
20.04.2021 17:00 18,6 C 22,1 C 15,1 C 52 % 1016,0 hPa 0,0 l/m 0,53 h 0,00 h 295 W/m 5,6 km/h (1 Bft) 98,44 %
20.04.2021 18:00 18,3 C 20,8 C 15,1 C 53 % 1015,9 hPa 0,0 l/m 0,87 h 0,00 h 263 W/m 7,3 km/h (2 Bft) 99,63 %
20.04.2021 19:00 17,4 C 16,6 C 13,4 C 57 % 1015,8 hPa 0,0 l/m 0,00 h 0,00 h 65 W/m 4,1 km/h (1 Bft) 94,30 %
20.04.2021 20:00 16,0 C 13,9 C 10,8 C 62 % 1015,9 hPa 0,0 l/m 0,00 h 0,00 h 16 W/m 1,8 km/h (1 Bft) 99,50 %
20.04.2021 21:00 14,1 C 11,5 C 8,3 C 68 % 1016,3 hPa 0,0 l/m 0,00 h 0,00 h 0 W/m 0,5 km/h (0 Bft) 98,15 %
20.04.2021 22:00 12,3 C 10,3 C 7,5 C 73 % 1016,4 hPa 0,0 l/m 0,00 h 0,00 h 0 W/m 0,1 km/h (0 Bft) 98,58 %
20.04.2021 23:00 10,9 C 9,1 C 6,5 C 78 % 1016,4 hPa 0,0 l/m 0,00 h 0,00 h 0 W/m 0,0 km/h (0 Bft) 95,80 %
21.04.2021 00:00 9,8 C 8,1 C 5,6 C 82 % 1016,3 hPa 0,0 l/m 0,00 h 0,00 h 0 W/m 0,4 km/h (0 Bft) 96,76 %
21.04.2021 01:00 8,8 C 7,3 C 5,1 C 86 % 1016,5 hPa 0,0 l/m 0,00 h 0,00 h 0 W/m 0,0 km/h (0 Bft) 97,44 %
21.04.2021 02:00 7,9 C 6,6 C 4,6 C 87 % 1016,3 hPa 0,0 l/m 0,00 h 0,00 h 0 W/m 0,0 km/h (0 Bft) 95,52 %
21.04.2021 03:00 7,3 C 6,1 C 4,4 C 89 % 1016,0 hPa 0,0 l/m 0,00 h 0,00 h 0 W/m 1,0 km/h (0 Bft) 97,93 %
21.04.2021 04:00 6,8 C 5,9 C 4,0 C 90 % 1016,0 hPa 0,0 l/m 0,00 h 0,00 h 0 W/m 0,3 km/h (0 Bft) 98,38 %
21.04.2021 05:00 6,6 C 5,8 C 4,3 C 92 % 1016,0 hPa 0,0 l/m 0,00 h 0,00 h 0 W/m 0,6 km/h (0 Bft) 99,36 %
21.04.2021 06:00 6,6 C 5,9 C 4,4 C 93 % 1016,1 hPa 0,0 l/m 0,00 h 0,00 h 9 W/m 0,0 km/h (0 Bft) 96,98 %
21.04.2021 07:00 7,0 C 6,9 C 5,4 C 94 % 1016,5 hPa 0,0 l/m 0,00 h 0,00 h 39 W/m 0,1 km/h (0 Bft) 96,42 %
21.04.2021 08:00 8,2 C 9,3 C 7,4 C 95 % 1016,7 hPa 0,0 l/m 0,60 h 0,00 h 207 W/m 3,0 km/h (1 Bft) 95,66 %
21.04.2021 09:00 10,7 C 12,8 C 10,4 C 89 % 1017,0 hPa 0,0 l/m 0,77 h 0,00 h 274 W/m 3,9 km/h (1 Bft) 98,22 %
21.04.2021 10:00 12,0 C 14,7 C 12,7 C 82 % 1017,2 hPa 0,0 l/m 0,97 h 0,00 h 439 W/m 9,0 km/h (2 Bft) 99,15 %
21.04.2021 11:00 14,7 C 17,4 C 14,5 C 66 % 1017,5 hPa 0,0 l/m 1,00 h 0,00 h 690 W/m 15,5 km/h (3 Bft) 97,79 %
21.04.2021 12:00 16,8 C 20,0 C 18,6 C 61 % 1017,5 hPa 0,0 l/m 1,00 h 0,00 h 669 W/m 14,0 km/h (3 Bft) 98,16 %
21.04.2021 13:00 17,1 C 19,6 C 17,2 C 55 % 1017,5 hPa 0,0 l/m 0,70 h 0,00 h 521 W/m 18,1 km/h (3 Bft) 98,43 %
21.04.2021 14:00 17,9 C 21,1 C 16,1 C 54 % 1017,3 hPa 0,0 l/m 0,97 h 0,00 h 626 W/m 17,6 km/h (3 Bft) 95,24 %
21.04.2021 15:00 18,7 C 22,8 C 16,0 C 54 % 1017,2 hPa 0,0 l/m 0,97 h 0,00 h 688 W/m 21,5 km/h (4 Bft) 98,01 %
21.04.2021 16:00 18,9 C 23,9 C 16,1 C 51 % 1017,1 hPa 0,0 l/m 1,00 h 0,00 h 596 W/m 21,8 km/h (4 Bft) 99,08 %
21.04.2021 17:00 18,1 C 21,9 C 15,6 C 56 % 1017,3 hPa 0,0 l/m 0,93 h 0,00 h 420 W/m 24,1 km/h (4 Bft) 91,73 %
21.04.2021 18:00 16,0 C 18,0 C 13,4 C 64 % 1017,9 hPa 0,0 l/m 0,90 h 0,00 h 259 W/m 29,2 km/h (5 Bft) 97,65 %
21.04.2021 19:00 13,6 C 13,2 C 10,5 C 67 % 1018,4 hPa 0,0 l/m 0,00 h 0,00 h 65 W/m 24,0 km/h (4 Bft) 98,94 %
21.04.2021 20:00 11,6 C 10,8 C 8,4 C 70 % 1019,2 hPa 0,0 l/m 0,00 h 0,00 h 18 W/m 22,1 km/h (4 Bft) 96,22 %
21.04.2021 21:00 10,1 C 9,2 C 6,9 C 70 % 1020,3 hPa 0,0 l/m 0,00 h 0,00 h 0 W/m 17,4 km/h (3 Bft) 97,58 %
21.04.2021 22:00 8,7 C 7,8 C 5,5 C 67 % 1021,1 hPa 0,0 l/m 0,00 h 0,00 h 0 W/m 19,3 km/h (3 Bft) 96,96 %
21.04.2021 23:00 7,4 C 6,5 C 4,2 C 71 % 1021,8 hPa 0,0 l/m 0,00 h 0,00 h 0 W/m 15,2 km/h (3 Bft) 97,86 %
22.04.2021 00:00 6,4 C 5,6 C 3,3 C 73 % 1022,5 hPa 0,0 l/m 0,00 h 0,00 h 0 W/m 13,5 km/h (3 Bft) 97,29 %
22.04.2021 01:00 5,4 C 4,6 C 2,5 C 74 % 1023,0 hPa 0,0 l/m 0,00 h 0,00 h 0 W/m 7,7 km/h (2 Bft) 98,27 %
22.04.2021 02:00 4,8 C 3,8 C 1,7 C 77 % 1023,4 hPa 0,0 l/m 0,00 h 0,00 h 0 W/m 7,1 km/h (2 Bft) 96,74 %
22.04.2021 03:00 4,0 C 3,0 C 0,9 C 79 % 1023,7 hPa 0,0 l/m 0,00 h 0,00 h 0 W/m 3,6 km/h (1 Bft) 94,80 %
22.04.2021 04:00 3,2 C 2,1 C 0,3 C 82 % 1024,0 hPa 0,0 l/m 0,00 h 0,00 h 0 W/m 1,7 km/h (1 Bft) 94,71 %
22.04.2021 05:00 2,5 C 1,5 C -0,5 C 85 % 1024,3 hPa 0,0 l/m 0,00 h 0,00 h 0 W/m 1,7 km/h (1 Bft) 96,93 %
22.04.2021 06:00 1,9 C 1,1 C -0,7 C 87 % 1024,5 hPa 0,0 l/m 0,00 h 0,00 h 14 W/m 0,5 km/h (0 Bft) 97,08 %
22.04.2021 07:00 2,0 C 2,2 C 0,1 C 89 % 1025,1 hPa 0,0 l/m 0,00 h 0,00 h 53 W/m 4,1 km/h (1 Bft) 96,39 %
22.04.2021 08:00 3,7 C 4,7 C 2,1 C 88 % 1025,7 hPa 0,0 l/m 0,37 h 0,00 h 144 W/m 9,7 km/h (2 Bft) 94,59 %
22.04.2021 09:00 6,8 C 11,0 C 6,8 C 73 % 1026,2 hPa 0,0 l/m 0,73 h 0,00 h 329 W/m 13,7 km/h (3 Bft) 99,66 %
22.04.2021 10:00 8,5 C 12,7 C 8,2 C 65 % 1026,4 hPa 0,0 l/m 0,73 h 0,00 h 464 W/m 16,6 km/h (3 Bft) 97,15 %
22.04.2021 11:00 9,2 C 11,9 C 8,6 C 63 % 1026,4 hPa 0,0 l/m 0,90 h 0,00 h 671 W/m 16,5 km/h (3 Bft) 96,58 %
22.04.2021 12:00 11,0 C 14,8 C 13,7 C 59 % 1026,3 hPa 0,0 l/m 0,80 h 0,00 h 719 W/m 18,0 km/h (3 Bft) 99,43 %
22.04.2021 13:00 12,1 C 16,1 C 14,9 C 57 % 1026,2 hPa 0,0 l/m 0,90 h 0,00 h 820 W/m 18,1 km/h (3 Bft) 98,65 %
22.04.2021 14:00 13,2 C 17,8 C 11,3 C 55 % 1026,2 hPa 0,0 l/m 0,97 h 0,00 h 877 W/m 20,2 km/h (4 Bft) 96,64 %
22.04.2021 15:00 13,6 C 17,8 C 11,0 C 54 % 1025,9 hPa 0,0 l/m 0,88 h 0,00 h 789 W/m 21,0 km/h (4 Bft) 95,35 %
23.04.2021 00:00 6,2 C 5,2 C 3,1 C 77 % 1027,8 hPa 0,0 l/m 0,00 h 0,00 h 795 W/m 8,8 km/h (2 Bft) 96,43 %
23.04.2021 01:00 5,4 C 4,3 C 2,4 C 80 % 1028,0 hPa 0,0 l/m 0,00 h 0,00 h 0 W/m 7,3 km/h (2 Bft) 98,93 %
23.04.2021 02:00 4,6 C 3,4 C 1,3 C 83 % 1028,1 hPa 0,0 l/m 0,00 h 0,00 h 0 W/m 1,6 km/h (1 Bft) 94,87 %
23.04.2021 03:00 3,5 C 2,4 C 0,4 C 86 % 1028,2 hPa 0,0 l/m 0,00 h 0,00 h 0 W/m 1,3 km/h (1 Bft) 94,56 %
23.04.2021 04:00 2,8 C 1,9 C -0,0 C 87 % 1028,4 hPa 0,0 l/m 0,00 h 0,00 h 0 W/m 1,3 km/h (1 Bft) 97,45 %
23.04.2021 05:00 2,2 C 1,0 C -0,4 C 89 % 1028,8 hPa 0,0 l/m 0,00 h 0,00 h 0 W/m 0,2 km/h (0 Bft) 99,07 %
23.04.2021 06:00 1,6 C 0,6 C -1,0 C 90 % 1029,2 hPa 0,0 l/m 0,00 h 0,00 h 11 W/m 0,0 km/h (0 Bft) 96,01 %
23.04.2021 07:00 1,5 C 1,4 C -0,3 C 91 % 1029,8 hPa 0,0 l/m 0,00 h 0,00 h 28 W/m 0,6 km/h (0 Bft) 96,22 %
23.04.2021 08:00 3,2 C 4,4 C 1,8 C 93 % 1030,2 hPa 0,0 l/m 0,37 h 0,00 h 147 W/m 3,3 km/h (1 Bft) 96,22 %
23.04.2021 09:00 7,3 C 13,8 C 8,2 C 78 % 1030,4 hPa 0,0 l/m 0,83 h 0,00 h 380 W/m 13,9 km/h (3 Bft) 99,86 %
23.04.2021 10:00 9,6 C 14,4 C 9,2 C 66 % 1030,4 hPa 0,0 l/m 0,80 h 0,00 h 511 W/m 11,2 km/h (2 Bft) 95,73 %
23.04.2021 11:00 10,0 C 13,0 C 9,2 C 64 % 1030,2 hPa 0,0 l/m 1,00 h 0,00 h 764 W/m 11,8 km/h (2 Bft) 97,58 %
23.04.2021 12:00 11,9 C 16,4 C 15,9 C 60 % 1030,0 hPa 0,0 l/m 1,00 h 0,00 h 849 W/m 13,0 km/h (3 Bft) 99,71 %
23.04.2021 13:00 13,6 C 18,2 C 16,9 C 55 % 1029,8 hPa 0,0 l/m 1,00 h 0,00 h 881 W/m 12,8 km/h (3 Bft) 97,58 %
23.04.2021 14:00 14,6 C 19,7 C 11,7 C 51 % 1029,6 hPa 0,0 l/m 1,00 h 0,00 h 856 W/m 16,3 km/h (3 Bft) 97,44 %
23.04.2021 15:00 15,1 C 20,2 C 11,6 C 52 % 1029,1 hPa 0,0 l/m 1,00 h 0,00 h 766 W/m 13,9 km/h (3 Bft) 98,43 %
23.04.2021 16:00 15,6 C 22,9 C 12,6 C 52 % 1028,6 hPa 0,0 l/m 1,00 h 0,00 h 652 W/m 13,6 km/h (3 Bft) 96,37 %
23.04.2021 17:00 15,9 C 22,0 C 13,0 C 52 % 1028,2 hPa 0,0 l/m 1,00 h 0,00 h 493 W/m 13,4 km/h (3 Bft) 97,58 %
23.04.2021 18:00 15,4 C 19,0 C 12,2 C 53 % 1027,8 hPa 0,0 l/m 0,93 h 0,00 h 297 W/m 12,1 km/h (2 Bft) 99,55 %
23.04.2021 19:00 13,1 C 12,5 C 9,8 C 57 % 1027,6 hPa 0,0 l/m 0,00 h 0,00 h 42 W/m 9,7 km/h (2 Bft) 96,02 %
23.04.2021 20:00 11,8 C 10,7 C 8,4 C 62 % 1027,6 hPa 0,0 l/m 0,00 h 0,00 h 16 W/m 8,6 km/h (2 Bft) 96,72 %
23.04.2021 21:00 10,6 C 9,2 C 7,0 C 67 % 1027,9 hPa 0,0 l/m 0,00 h 0,00 h 0 W/m 7,1 km/h (2 Bft) 98,64 %
23.04.2021 22:00 9,5 C 8,4 C 6,3 C 70 % 1027,9 hPa 0,0 l/m 0,00 h 0,00 h 0 W/m 7,2 km/h (2 Bft) 96,79 %
23.04.2021 23:00 8,9 C 7,8 C 5,5 C 72 % 1027,8 hPa 0,0 l/m 0,00 h 0,00 h 0 W/m 6,2 km/h (2 Bft) 98,36 %
24.04.2021 00:00 8,2 C 7,1 C 4,8 C 73 % 1027,8 hPa 0,0 l/m 0,00 h 0,00 h 0 W/m 8,1 km/h (2 Bft) 94,27 %
24.04.2021 01:00 7,3 C 6,2 C 3,9 C 75 % 1028,1 hPa 0,0 l/m 0,00 h 0,00 h 0 W/m 7,7 km/h (2 Bft) 96,24 %
24.04.2021 02:00 6,2 C 5,0 C 2,9 C 77 % 1028,1 hPa 0,0 l/m 0,00 h 0,00 h 0 W/m 3,2 km/h (1 Bft) 93,78 %
24.04.2021 03:00 5,3 C 4,3 C 2,3 C 81 % 1028,0 hPa 0,0 l/m 0,00 h 0,00 h 0 W/m 4,7 km/h (1 Bft) 97,92 %
24.04.2021 04:00 4,6 C 3,5 C 1,5 C 81 % 1027,9 hPa 0,0 l/m 0,00 h 0,00 h 0 W/m 1,9 km/h (1 Bft) 97,79 %
24.04.2021 05:00 3,9 C 3,3 C 1,1 C 80 % 1027,9 hPa 0,0 l/m 0,00 h 0,00 h 0 W/m 5,0 km/h (1 Bft) 97,37 %
24.04.2021 06:00 3,8 C 3,1 C 1,0 C 81 % 1028,2 hPa 0,0 l/m 0,00 h 0,00 h 18 W/m 5,1 km/h (1 Bft) 96,61 %
24.04.2021 07:00 4,0 C 4,0 C 1,6 C 85 % 1028,3 hPa 0,0 l/m 0,00 h 0,00 h 57 W/m 4,2 km/h (1 Bft) 99,01 %
24.04.2021 08:00 5,7 C 7,0 C 3,5 C 82 % 1028,3 hPa 0,0 l/m 0,40 h 0,00 h 193 W/m 8,5 km/h (2 Bft) 95,38 %
24.04.2021 09:00 8,4 C 14,3 C 8,4 C 76 % 1028,3 hPa 0,0 l/m 0,87 h 0,00 h 388 W/m 12,8 km/h (3 Bft) 97,15 %
24.04.2021 10:00 10,0 C 14,4 C 9,8 C 69 % 1028,1 hPa 0,0 l/m 0,90 h 0,00 h 520 W/m 13,4 km/h (3 Bft) 99,57 %
24.04.2021 11:00 11,3 C 14,6 C 10,4 C 64 % 1028,0 hPa 0,0 l/m 1,00 h 0,00 h 740 W/m 13,3 km/h (3 Bft) 98,44 %
24.04.2021 12:00 12,7 C 16,8 C 15,5 C 58 % 1027,6 hPa 0,0 l/m 1,00 h 0,00 h 773 W/m 16,5 km/h (3 Bft) 96,98 %
24.04.2021 13:00 14,0 C 18,7 C 15,9 C 56 % 1027,0 hPa 0,0 l/m 1,00 h 0,00 h 840 W/m 17,4 km/h (3 Bft) 99,43 %
24.04.2021 14:00 15,0 C 19,7 C 12,6 C 52 % 1026,6 hPa 0,0 l/m 0,97 h 0,00 h 785 W/m 17,1 km/h (3 Bft) 98,22 %
24.04.2021 15:00 15,8 C 20,5 C 13,4 C 51 % 1026,1 hPa 0,0 l/m 1,00 h 0,00 h 781 W/m 17,8 km/h (3 Bft) 95,66 %
24.04.2021 16:00 16,3 C 23,0 C 14,3 C 49 % 1025,8 hPa 0,0 l/m 1,00 h 0,00 h 735 W/m 19,7 km/h (3 Bft) 99,22 %
24.04.2021 17:00 15,5 C 20,2 C 13,6 C 51 % 1025,5 hPa 0,0 l/m 1,00 h 0,00 h 517 W/m 20,4 km/h (4 Bft) 98,43 %
24.04.2021 18:00 13,8 C 15,1 C 11,3 C 55 % 1025,3 hPa 0,0 l/m 0,97 h 0,00 h 205 W/m 18,9 km/h (3 Bft) 95,81 %
24.04.2021 19:00 12,7 C 12,5 C 9,8 C 55 % 1025,3 hPa 0,0 l/m 0,00 h 0,00 h 73 W/m 17,0 km/h (3 Bft) 99,53 %
24.04.2021 20:00 11,8 C 11,1 C 8,6 C 55 % 1025,3 hPa 0,0 l/m 0,00 h 0,00 h 18 W/m 16,2 km/h (3 Bft) 95,24 %
24.04.2021 21:00 10,3 C 9,4 C 7,0 C 59 % 1025,8 hPa 0,0 l/m 0,00 h 0,00 h 0 W/m 18,0 km/h (3 Bft) 98,22 %
24.04.2021 22:00 9,3 C 8,4 C 6,0 C 62 % 1026,1 hPa 0,0 l/m 0,00 h 0,00 h 0 W/m 14,6 km/h (3 Bft) 95,06 %
24.04.2021 23:00 8,1 C 7,2 C 4,8 C 66 % 1026,3 hPa 0,0 l/m 0,00 h 0,00 h 0 W/m 16,2 km/h (3 Bft) 97,17 %
25.04.2021 00:00 6,8 C 6,0 C 3,6 C 70 % 1026,6 hPa 0,0 l/m 0,00 h 0,00 h 0 W/m 12,1 km/h (2 Bft) 97,00 %
25.04.2021 01:00 6,0 C 5,1 C 2,8 C 74 % 1026,9 hPa 0,0 l/m 0,00 h 0,00 h 0 W/m 12,0 km/h (2 Bft) 98,58 %
25.04.2021 02:00 5,3 C 4,4 C 2,2 C 77 % 1026,9 hPa 0,0 l/m 0,00 h 0,00 h 0 W/m 7,5 km/h (2 Bft) 99,36 %
25.04.2021 03:00 4,5 C 3,5 C 1,4 C 79 % 1026,9 hPa 0,0 l/m 0,00 h 0,00 h 0 W/m 6,3 km/h (2 Bft) 97,16 %
25.04.2021 04:00 3,8 C 3,0 C 0,9 C 82 % 1027,0 hPa 0,0 l/m 0,00 h 0,00 h 0 W/m 6,1 km/h (2 Bft) 94,97 %
25.04.2021 05:00 3,5 C 2,9 C 0,8 C 84 % 1026,9 hPa 0,0 l/m 0,00 h 0,00 h 0 W/m 5,3 km/h (1 Bft) 96,80 %
25.04.2021 06:00 3,5 C 3,0 C 1,0 C 84 % 1027,0 hPa 0,0 l/m 0,00 h 0,00 h 13 W/m 2,8 km/h (1 Bft) 98,56 %
25.04.2021 07:00 4,0 C 4,1 C 1,9 C 82 % 1027,2 hPa 0,0 l/m 0,00 h 0,00 h 46 W/m 7,2 km/h (2 Bft) 97,08 %
25.04.2021 08:00 5,2 C 5,6 C 3,1 C 77 % 1027,6 hPa 0,0 l/m 0,00 h 0,00 h 99 W/m 7,9 km/h (2 Bft) 98,93 %
25.04.2021 09:00 6,0 C 6,4 C 3,8 C 74 % 1027,9 hPa 0,0 l/m 0,03 h 0,00 h 153 W/m 12,3 km/h (3 Bft) 97,44 %
25.04.2021 10:00 6,6 C 7,7 C 5,0 C 71 % 1028,0 hPa 0,0 l/m 0,17 h 0,00 h 280 W/m 16,7 km/h (3 Bft) 95,79 %
25.04.2021 11:00 8,6 C 12,3 C 8,5 C 65 % 1027,8 hPa 0,0 l/m 1,00 h 0,00 h 809 W/m 16,7 km/h (3 Bft) 97,74 %
25.04.2021 12:00 10,5 C 14,6 C 15,1 C 60 % 1027,5 hPa 0,0 l/m 1,00 h 0,00 h 861 W/m 17,1 km/h (3 Bft) 99,78 %
25.04.2021 13:00 11,9 C 16,2 C 15,6 C 57 % 1027,0 hPa 0,0 l/m 1,00 h 0,00 h 861 W/m 17,2 km/h (3 Bft) 95,51 %
25.04.2021 14:00 13,1 C 18,1 C 10,3 C 54 % 1026,7 hPa 0,0 l/m 1,00 h 0,00 h 857 W/m 15,3 km/h (3 Bft) 97,93 %
25.04.2021 15:00 13,8 C 18,3 C 10,5 C 53 % 1026,4 hPa 0,0 l/m 1,00 h 0,00 h 778 W/m 16,4 km/h (3 Bft) 96,16 %
25.04.2021 16:00 14,0 C 20,5 C 11,4 C 53 % 1025,8 hPa 0,0 l/m 1,00 h 0,00 h 660 W/m 17,6 km/h (3 Bft) 96,65 %
25.04.2021 17:00 14,2 C 20,3 C 12,1 C 52 % 1025,3 hPa 0,0 l/m 1,00 h 0,00 h 502 W/m 16,8 km/h (3 Bft) 99,07 %
25.04.2021 18:00 13,4 C 16,8 C 10,8 C 53 % 1025,0 hPa 0,0 l/m 0,97 h 0,00 h 296 W/m 16,2 km/h (3 Bft) 97,90 %
25.04.2021 19:00 11,5 C 11,3 C 8,5 C 57 % 1024,7 hPa 0,0 l/m 0,00 h 0,00 h 60 W/m 12,4 km/h (3 Bft) 95,38 %
25.04.2021 20:00 10,2 C 9,2 C 6,9 C 59 % 1024,6 hPa 0,0 l/m 0,00 h 0,00 h 17 W/m 10,1 km/h (2 Bft) 97,51 %
25.04.2021 21:00 8,8 C 7,4 C 5,3 C 64 % 1024,6 hPa 0,0 l/m 0,00 h 0,00 h 0 W/m 4,8 km/h (1 Bft) 99,64 %
25.04.2021 22:00 7,4 C 6,1 C 4,0 C 69 % 1024,5 hPa 0,0 l/m 0,00 h 0,00 h 0 W/m 1,7 km/h (1 Bft) 97,37 %
25.04.2021 23:00 6,5 C 4,9 C 3,0 C 73 % 1024,6 hPa 0,0 l/m 0,00 h 0,00 h 0 W/m 0,0 km/h (0 Bft) 94,80 %
Min-Datum _ 23.04.21 23.04.21 22.04.21 24.04.21 20.04.21 - - - - 19.04.21 19.04.21
_ Min-Zeit 06:48 05:44 06:32 16:30 19:12 - - - - 01:10 04:05
Minimum _ 1,3 C 0,6 C -1,1 C 48 % 1015,7 hPa - - - - 0,0 km/h (0 Bft) 1,75 %
Max-Datum _ 20.04.21 20.04.21 20.04.21 20.04.21 23.04.21 19.04.21 23.04.21 19.04.21 22.04.21 21.04.21 19.04.21
_ Max-Zeit 17:08 16:40 12:44 09:08 09:22 08:08 14:07 04:24 13:20 22:32 00:00
Maximum _ 19,7 C 27,8 C 25,0 C 99 % 1030,5 hPa 2,0 l/m 0,08 h 0,03 h 1033 W/m 45,1 km/h
N-NW (6 Bft)
100,00 %
Durchschnitt _ 9,7 C 10,7 C 7,6 C 74 % 1023,1 hPa #4,4 l/m #55:07 h #3:06 h 391 W/m 8,8 km/h (2 Bft) 96,41 %
© 2021 W. Hausmann